sensor_id;sensor_type;location;lat;lon;timestamp;P1;durP1;ratioP1;P2;durP2;ratioP2
1376;SDS011;682;52.502;13.488;2022-09-27T00:01:45;4.60;;;2.93;;
1376;SDS011;682;52.502;13.488;2022-09-27T00:04:13;3.67;;;2.60;;
1376;SDS011;682;52.502;13.488;2022-09-27T00:06:42;3.60;;;2.30;;
1376;SDS011;682;52.502;13.488;2022-09-27T00:09:37;4.43;;;2.57;;
1376;SDS011;682;52.502;13.488;2022-09-27T00:12:07;4.47;;;2.80;;
1376;SDS011;682;52.502;13.488;2022-09-27T00:14:47;4.90;;;3.00;;
1376;SDS011;682;52.502;13.488;2022-09-27T00:17:14;4.07;;;2.87;;
1376;SDS011;682;52.502;13.488;2022-09-27T00:19:44;5.20;;;3.20;;
1376;SDS011;682;52.502;13.488;2022-09-27T00:22:22;5.13;;;2.73;;
1376;SDS011;682;52.502;13.488;2022-09-27T00:24:51;5.23;;;2.50;;
1376;SDS011;682;52.502;13.488;2022-09-27T00:27:23;5.30;;;3.40;;
1376;SDS011;682;52.502;13.488;2022-09-27T00:29:52;4.53;;;2.77;;
1376;SDS011;682;52.502;13.488;2022-09-27T00:32:19;3.97;;;2.90;;
1376;SDS011;682;52.502;13.488;2022-09-27T00:34:50;4.27;;;2.77;;
1376;SDS011;682;52.502;13.488;2022-09-27T00:37:20;4.70;;;2.73;;
1376;SDS011;682;52.502;13.488;2022-09-27T00:39:55;4.33;;;2.73;;
1376;SDS011;682;52.502;13.488;2022-09-27T00:42:24;4.80;;;3.10;;
1376;SDS011;682;52.502;13.488;2022-09-27T00:45:03;4.40;;;2.73;;
1376;SDS011;682;52.502;13.488;2022-09-27T00:47:35;4.00;;;2.87;;
1376;SDS011;682;52.502;13.488;2022-09-27T00:50:09;5.17;;;3.00;;
1376;SDS011;682;52.502;13.488;2022-09-27T00:53:01;4.17;;;2.57;;
1376;SDS011;682;52.502;13.488;2022-09-27T00:55:47;6.07;;;3.20;;
1376;SDS011;682;52.502;13.488;2022-09-27T00:58:20;4.77;;;2.70;;
1376;SDS011;682;52.502;13.488;2022-09-27T01:00:55;5.93;;;3.00;;
1376;SDS011;682;52.502;13.488;2022-09-27T01:03:30;4.43;;;2.83;;
1376;SDS011;682;52.502;13.488;2022-09-27T01:06:04;4.90;;;3.33;;
1376;SDS011;682;52.502;13.488;2022-09-27T01:08:34;5.87;;;2.30;;
1376;SDS011;682;52.502;13.488;2022-09-27T01:14:10;8.00;;;3.13;;
1376;SDS011;682;52.502;13.488;2022-09-27T01:17:16;4.73;;;3.03;;
1376;SDS011;682;52.502;13.488;2022-09-27T01:20:12;4.73;;;2.90;;
1376;SDS011;682;52.502;13.488;2022-09-27T01:22:59;4.87;;;2.90;;
1376;SDS011;682;52.502;13.488;2022-09-27T01:25:46;3.80;;;2.70;;
1376;SDS011;682;52.502;13.488;2022-09-27T01:28:37;4.93;;;2.60;;
1376;SDS011;682;52.502;13.488;2022-09-27T01:31:19;6.10;;;2.63;;
1376;SDS011;682;52.502;13.488;2022-09-27T01:33:53;3.83;;;2.20;;
1376;SDS011;682;52.502;13.488;2022-09-27T01:36:31;4.70;;;3.03;;
1376;SDS011;682;52.502;13.488;2022-09-27T01:39:08;3.40;;;2.57;;
1376;SDS011;682;52.502;13.488;2022-09-27T01:41:51;4.57;;;2.80;;
1376;SDS011;682;52.502;13.488;2022-09-27T01:44:27;6.53;;;2.80;;
1376;SDS011;682;52.502;13.488;2022-09-27T01:47:11;4.23;;;2.67;;
1376;SDS011;682;52.502;13.488;2022-09-27T01:49:44;3.57;;;2.77;;
1376;SDS011;682;52.502;13.488;2022-09-27T01:52:20;4.37;;;2.30;;
1376;SDS011;682;52.502;13.488;2022-09-27T01:54:55;3.73;;;2.50;;
1376;SDS011;682;52.502;13.488;2022-09-27T01:57:45;5.83;;;2.67;;
1376;SDS011;682;52.502;13.488;2022-09-27T02:00:15;3.80;;;2.00;;
1376;SDS011;682;52.502;13.488;2022-09-27T02:02:56;3.93;;;2.67;;
1376;SDS011;682;52.502;13.488;2022-09-27T02:05:39;3.37;;;2.43;;
1376;SDS011;682;52.502;13.488;2022-09-27T02:08:20;3.80;;;2.20;;
1376;SDS011;682;52.502;13.488;2022-09-27T02:11:07;4.10;;;2.40;;
1376;SDS011;682;52.502;13.488;2022-09-27T02:13:43;4.33;;;2.40;;
1376;SDS011;682;52.502;13.488;2022-09-27T02:16:17;3.97;;;2.60;;
1376;SDS011;682;52.502;13.488;2022-09-27T02:19:07;4.20;;;2.63;;
1376;SDS011;682;52.502;13.488;2022-09-27T02:21:39;3.97;;;2.20;;
1376;SDS011;682;52.502;13.488;2022-09-27T02:24:11;4.50;;;2.17;;
1376;SDS011;682;52.502;13.488;2022-09-27T02:26:42;3.60;;;1.90;;
1376;SDS011;682;52.502;13.488;2022-09-27T02:29:21;3.77;;;2.37;;
1376;SDS011;682;52.502;13.488;2022-09-27T02:32:07;4.47;;;1.90;;
1376;SDS011;682;52.502;13.488;2022-09-27T02:34:44;3.50;;;2.27;;
1376;SDS011;682;52.502;13.488;2022-09-27T02:37:46;4.50;;;2.30;;
1376;SDS011;682;52.502;13.488;2022-09-27T02:40:18;3.27;;;2.20;;
1376;SDS011;682;52.502;13.488;2022-09-27T02:42:49;4.50;;;2.60;;
1376;SDS011;682;52.502;13.488;2022-09-27T02:45:36;4.13;;;2.83;;
1376;SDS011;682;52.502;13.488;2022-09-27T02:48:18;3.70;;;2.57;;
1376;SDS011;682;52.502;13.488;2022-09-27T02:51:08;5.50;;;2.63;;
1376;SDS011;682;52.502;13.488;2022-09-27T02:56:59;4.37;;;2.20;;
1376;SDS011;682;52.502;13.488;2022-09-27T03:02:58;5.40;;;2.50;;
1376;SDS011;682;52.502;13.488;2022-09-27T03:05:48;4.07;;;2.07;;
1376;SDS011;682;52.502;13.488;2022-09-27T03:08:46;5.60;;;2.00;;
1376;SDS011;682;52.502;13.488;2022-09-27T03:11:27;3.60;;;2.40;;
1376;SDS011;682;52.502;13.488;2022-09-27T03:15:38;4.20;;;2.40;;
1376;SDS011;682;52.502;13.488;2022-09-27T03:17:11;4.47;;;2.70;;
1376;SDS011;682;52.502;13.488;2022-09-27T03:19:49;4.20;;;2.60;;
1376;SDS011;682;52.502;13.488;2022-09-27T03:22:24;3.40;;;2.23;;
1376;SDS011;682;52.502;13.488;2022-09-27T03:25:00;5.00;;;3.17;;
1376;SDS011;682;52.502;13.488;2022-09-27T03:27:30;4.40;;;2.40;;
1376;SDS011;682;52.502;13.488;2022-09-27T03:30:00;4.23;;;2.30;;
1376;SDS011;682;52.502;13.488;2022-09-27T03:32:50;4.57;;;2.63;;
1376;SDS011;682;52.502;13.488;2022-09-27T03:36:10;3.67;;;2.50;;
1376;SDS011;682;52.502;13.488;2022-09-27T03:38:21;3.70;;;2.63;;
1376;SDS011;682;52.502;13.488;2022-09-27T03:41:19;8.70;;;3.20;;
1376;SDS011;682;52.502;13.488;2022-09-27T03:43:59;4.60;;;2.87;;
1376;SDS011;682;52.502;13.488;2022-09-27T03:46:30;4.33;;;2.40;;
1376;SDS011;682;52.502;13.488;2022-09-27T03:49:10;4.80;;;2.90;;
1376;SDS011;682;52.502;13.488;2022-09-27T03:51:52;4.63;;;3.43;;
1376;SDS011;682;52.502;13.488;2022-09-27T03:54:40;4.20;;;3.10;;
1376;SDS011;682;52.502;13.488;2022-09-27T04:00:29;6.10;;;3.53;;
1376;SDS011;682;52.502;13.488;2022-09-27T04:03:18;5.37;;;2.90;;
1376;SDS011;682;52.502;13.488;2022-09-27T04:06:19;5.83;;;3.30;;
1376;SDS011;682;52.502;13.488;2022-09-27T04:09:00;5.13;;;3.00;;
1376;SDS011;682;52.502;13.488;2022-09-27T04:12:51;6.17;;;3.20;;
1376;SDS011;682;52.502;13.488;2022-09-27T04:20:50;4.53;;;2.70;;
1376;SDS011;682;52.502;13.488;2022-09-27T04:37:09;4.73;;;3.20;;
1376;SDS011;682;52.502;13.488;2022-09-27T04:39:41;5.63;;;3.13;;
1376;SDS011;682;52.502;13.488;2022-09-27T04:42:11;5.63;;;3.73;;
1376;SDS011;682;52.502;13.488;2022-09-27T04:44:48;5.40;;;2.93;;
1376;SDS011;682;52.502;13.488;2022-09-27T04:47:18;4.93;;;2.80;;
1376;SDS011;682;52.502;13.488;2022-09-27T04:50:01;6.83;;;2.90;;
1376;SDS011;682;52.502;13.488;2022-09-27T04:52:40;5.57;;;2.90;;
1376;SDS011;682;52.502;13.488;2022-09-27T04:55:11;4.93;;;3.30;;
1376;SDS011;682;52.502;13.488;2022-09-27T04:57:51;4.80;;;2.73;;
1376;SDS011;682;52.502;13.488;2022-09-27T05:00:31;5.40;;;3.57;;
1376;SDS011;682;52.502;13.488;2022-09-27T05:03:10;5.53;;;3.07;;
1376;SDS011;682;52.502;13.488;2022-09-27T05:05:40;5.77;;;3.30;;
1376;SDS011;682;52.502;13.488;2022-09-27T05:08:22;7.90;;;3.00;;
1376;SDS011;682;52.502;13.488;2022-09-27T05:10:58;6.60;;;2.93;;
1376;SDS011;682;52.502;13.488;2022-09-27T05:13:29;5.77;;;3.40;;
1376;SDS011;682;52.502;13.488;2022-09-27T05:16:01;6.30;;;3.70;;
1376;SDS011;682;52.502;13.488;2022-09-27T05:21:41;6.20;;;3.20;;
1376;SDS011;682;52.502;13.488;2022-09-27T05:24:10;5.30;;;3.00;;
1376;SDS011;682;52.502;13.488;2022-09-27T05:26:42;5.10;;;2.40;;
1376;SDS011;682;52.502;13.488;2022-09-27T05:46:23;6.17;;;3.50;;
1376;SDS011;682;52.502;13.488;2022-09-27T05:52:01;8.00;;;3.30;;
1376;SDS011;682;52.502;13.488;2022-09-27T05:54:30;5.87;;;3.13;;
1376;SDS011;682;52.502;13.488;2022-09-27T05:56:57;9.80;;;3.07;;
1376;SDS011;682;52.502;13.488;2022-09-27T05:59:29;10.13;;;3.90;;
1376;SDS011;682;52.502;13.488;2022-09-27T06:02:01;13.07;;;4.37;;
1376;SDS011;682;52.502;13.488;2022-09-27T06:04:28;9.60;;;3.80;;
1376;SDS011;682;52.502;13.488;2022-09-27T06:06:59;7.50;;;3.60;;
1376;SDS011;682;52.502;13.488;2022-09-27T06:09:26;6.10;;;3.10;;
1376;SDS011;682;52.502;13.488;2022-09-27T06:12:09;6.57;;;3.30;;
1376;SDS011;682;52.502;13.488;2022-09-27T06:14:40;8.70;;;3.30;;
1376;SDS011;682;52.502;13.488;2022-09-27T06:17:12;7.40;;;3.43;;
1376;SDS011;682;52.502;13.488;2022-09-27T06:19:51;7.70;;;3.53;;
1376;SDS011;682;52.502;13.488;2022-09-27T06:22:19;9.47;;;3.77;;
1376;SDS011;682;52.502;13.488;2022-09-27T06:24:49;9.55;;;4.07;;
1376;SDS011;682;52.502;13.488;2022-09-27T06:27:19;6.67;;;3.80;;
1376;SDS011;682;52.502;13.488;2022-09-27T06:29:51;9.17;;;3.53;;
1376;SDS011;682;52.502;13.488;2022-09-27T06:32:21;9.93;;;4.20;;
1376;SDS011;682;52.502;13.488;2022-09-27T06:34:48;8.77;;;3.57;;
1376;SDS011;682;52.502;13.488;2022-09-27T06:37:52;8.87;;;4.07;;
1376;SDS011;682;52.502;13.488;2022-09-27T06:40:11;7.70;;;4.90;;
1376;SDS011;682;52.502;13.488;2022-09-27T06:42:41;9.53;;;5.27;;
1376;SDS011;682;52.502;13.488;2022-09-27T06:45:11;8.57;;;5.07;;
1376;SDS011;682;52.502;13.488;2022-09-27T06:47:54;12.80;;;5.23;;
1376;SDS011;682;52.502;13.488;2022-09-27T06:50:34;12.43;;;5.30;;
1376;SDS011;682;52.502;13.488;2022-09-27T06:53:25;11.17;;;5.10;;
1376;SDS011;682;52.502;13.488;2022-09-27T06:55:56;15.13;;;5.60;;
1376;SDS011;682;52.502;13.488;2022-09-27T06:58:25;9.40;;;5.10;;
1376;SDS011;682;52.502;13.488;2022-09-27T07:01:16;8.50;;;4.80;;
1376;SDS011;682;52.502;13.488;2022-09-27T07:03:49;10.27;;;5.50;;
1376;SDS011;682;52.502;13.488;2022-09-27T07:06:30;12.83;;;6.23;;
1376;SDS011;682;52.502;13.488;2022-09-27T07:09:25;8.47;;;4.83;;
1376;SDS011;682;52.502;13.488;2022-09-27T07:11:55;10.60;;;5.23;;
1376;SDS011;682;52.502;13.488;2022-09-27T07:14:25;9.30;;;5.23;;
1376;SDS011;682;52.502;13.488;2022-09-27T07:16:59;10.57;;;5.10;;
1376;SDS011;682;52.502;13.488;2022-09-27T07:19:40;11.20;;;5.30;;
1376;SDS011;682;52.502;13.488;2022-09-27T07:22:57;8.70;;;4.63;;
1376;SDS011;682;52.502;13.488;2022-09-27T07:25:05;10.23;;;5.63;;
1376;SDS011;682;52.502;13.488;2022-09-27T07:27:33;10.17;;;5.50;;
1376;SDS011;682;52.502;13.488;2022-09-27T07:30:03;9.37;;;5.13;;
1376;SDS011;682;52.502;13.488;2022-09-27T07:32:32;9.80;;;5.63;;
1376;SDS011;682;52.502;13.488;2022-09-27T07:35:04;10.03;;;5.00;;
1376;SDS011;682;52.502;13.488;2022-09-27T07:37:33;9.10;;;4.90;;
1376;SDS011;682;52.502;13.488;2022-09-27T07:40:02;11.03;;;4.90;;
1376;SDS011;682;52.502;13.488;2022-09-27T07:42:33;10.13;;;5.70;;
1376;SDS011;682;52.502;13.488;2022-09-27T07:45:02;11.70;;;7.53;;
1376;SDS011;682;52.502;13.488;2022-09-27T07:47:31;9.83;;;5.00;;
1376;SDS011;682;52.502;13.488;2022-09-27T07:50:01;10.70;;;4.90;;
1376;SDS011;682;52.502;13.488;2022-09-27T07:52:30;7.83;;;4.63;;
1376;SDS011;682;52.502;13.488;2022-09-27T07:55:05;9.80;;;5.20;;
1376;SDS011;682;52.502;13.488;2022-09-27T07:57:35;9.07;;;4.87;;
1376;SDS011;682;52.502;13.488;2022-09-27T08:00:02;7.40;;;3.80;;
1376;SDS011;682;52.502;13.488;2022-09-27T08:02:30;8.70;;;5.10;;
1376;SDS011;682;52.502;13.488;2022-09-27T08:04:58;7.10;;;3.93;;
1376;SDS011;682;52.502;13.488;2022-09-27T08:07:28;7.87;;;4.13;;
1376;SDS011;682;52.502;13.488;2022-09-27T08:09:56;8.50;;;4.27;;
1376;SDS011;682;52.502;13.488;2022-09-27T08:12:23;7.17;;;4.10;;
1376;SDS011;682;52.502;13.488;2022-09-27T08:14:50;7.60;;;3.70;;
1376;SDS011;682;52.502;13.488;2022-09-27T08:17:17;9.50;;;4.73;;
1376;SDS011;682;52.502;13.488;2022-09-27T08:19:45;11.07;;;4.30;;
1376;SDS011;682;52.502;13.488;2022-09-27T08:22:13;8.10;;;3.53;;
1376;SDS011;682;52.502;13.488;2022-09-27T08:24:42;8.40;;;3.53;;
1376;SDS011;682;52.502;13.488;2022-09-27T08:27:09;8.23;;;3.77;;
1376;SDS011;682;52.502;13.488;2022-09-27T08:29:37;13.03;;;4.87;;
1376;SDS011;682;52.502;13.488;2022-09-27T08:32:06;10.60;;;4.70;;
1376;SDS011;682;52.502;13.488;2022-09-27T08:34:33;7.93;;;4.33;;
1376;SDS011;682;52.502;13.488;2022-09-27T08:37:01;8.23;;;4.37;;
1376;SDS011;682;52.502;13.488;2022-09-27T08:39:28;9.53;;;4.73;;
1376;SDS011;682;52.502;13.488;2022-09-27T08:42:01;8.20;;;4.77;;
1376;SDS011;682;52.502;13.488;2022-09-27T08:44:42;9.40;;;5.40;;
1376;SDS011;682;52.502;13.488;2022-09-27T08:47:21;9.73;;;6.13;;
1376;SDS011;682;52.502;13.488;2022-09-27T08:49:52;8.90;;;5.43;;
1376;SDS011;682;52.502;13.488;2022-09-27T08:52:24;14.90;;;6.40;;
1376;SDS011;682;52.502;13.488;2022-09-27T08:55:00;9.40;;;5.73;;
1376;SDS011;682;52.502;13.488;2022-09-27T08:57:32;11.43;;;4.87;;
1376;SDS011;682;52.502;13.488;2022-09-27T09:00:04;11.03;;;6.07;;
1376;SDS011;682;52.502;13.488;2022-09-27T09:02:33;8.60;;;4.87;;
1376;SDS011;682;52.502;13.488;2022-09-27T09:05:02;9.10;;;5.47;;
1376;SDS011;682;52.502;13.488;2022-09-27T09:07:46;8.10;;;4.60;;
1376;SDS011;682;52.502;13.488;2022-09-27T09:10:38;9.03;;;4.93;;
1376;SDS011;682;52.502;13.488;2022-09-27T09:13:37;9.33;;;5.67;;
1376;SDS011;682;52.502;13.488;2022-09-27T09:16:42;9.30;;;4.70;;
1376;SDS011;682;52.502;13.488;2022-09-27T09:19:24;12.10;;;6.17;;
1376;SDS011;682;52.502;13.488;2022-09-27T09:22:05;7.10;;;3.97;;
1376;SDS011;682;52.502;13.488;2022-09-27T09:24:49;8.60;;;4.23;;
1376;SDS011;682;52.502;13.488;2022-09-27T09:27:24;7.40;;;4.53;;
1376;SDS011;682;52.502;13.488;2022-09-27T09:30:09;8.43;;;4.53;;
1376;SDS011;682;52.502;13.488;2022-09-27T09:32:47;8.00;;;4.60;;
1376;SDS011;682;52.502;13.488;2022-09-27T09:35:23;9.37;;;4.83;;
1376;SDS011;682;52.502;13.488;2022-09-27T09:37:54;8.10;;;4.60;;
1376;SDS011;682;52.502;13.488;2022-09-27T09:40:25;7.87;;;4.20;;
1376;SDS011;682;52.502;13.488;2022-09-27T09:42:58;8.00;;;4.53;;
1376;SDS011;682;52.502;13.488;2022-09-27T09:45:30;8.30;;;4.20;;
1376;SDS011;682;52.502;13.488;2022-09-27T09:48:11;8.83;;;4.20;;
1376;SDS011;682;52.502;13.488;2022-09-27T09:50:48;8.70;;;5.30;;
1376;SDS011;682;52.502;13.488;2022-09-27T09:53:20;10.87;;;4.80;;
1376;SDS011;682;52.502;13.488;2022-09-27T09:56:04;8.20;;;3.77;;
1376;SDS011;682;52.502;13.488;2022-09-27T09:58:34;9.83;;;4.47;;
1376;SDS011;682;52.502;13.488;2022-09-27T10:01:16;9.63;;;4.23;;
1376;SDS011;682;52.502;13.488;2022-09-27T10:03:45;9.17;;;4.43;;
1376;SDS011;682;52.502;13.488;2022-09-27T10:06:12;6.93;;;3.70;;
1376;SDS011;682;52.502;13.488;2022-09-27T10:08:42;7.47;;;3.40;;
1376;SDS011;682;52.502;13.488;2022-09-27T10:11:12;8.93;;;3.60;;
1376;SDS011;682;52.502;13.488;2022-09-27T10:13:47;7.00;;;3.13;;
1376;SDS011;682;52.502;13.488;2022-09-27T10:16:16;8.10;;;3.10;;
1376;SDS011;682;52.502;13.488;2022-09-27T10:18:45;12.57;;;3.60;;
1376;SDS011;682;52.502;13.488;2022-09-27T10:21:15;7.80;;;3.50;;
1376;SDS011;682;52.502;13.488;2022-09-27T10:24:00;9.37;;;3.40;;
1376;SDS011;682;52.502;13.488;2022-09-27T10:26:33;7.97;;;3.47;;
1376;SDS011;682;52.502;13.488;2022-09-27T10:31:49;7.60;;;3.50;;
1376;SDS011;682;52.502;13.488;2022-09-27T10:34:23;6.93;;;3.60;;
1376;SDS011;682;52.502;13.488;2022-09-27T10:37:14;7.43;;;3.10;;
1376;SDS011;682;52.502;13.488;2022-09-27T10:39:48;8.17;;;3.60;;
1376;SDS011;682;52.502;13.488;2022-09-27T10:42:20;7.27;;;3.63;;
1376;SDS011;682;52.502;13.488;2022-09-27T10:44:55;7.33;;;3.50;;
1376;SDS011;682;52.502;13.488;2022-09-27T10:47:24;8.50;;;3.90;;
1376;SDS011;682;52.502;13.488;2022-09-27T10:49:51;6.77;;;3.50;;
1376;SDS011;682;52.502;13.488;2022-09-27T10:52:31;9.47;;;3.27;;
1376;SDS011;682;52.502;13.488;2022-09-27T10:55:04;7.80;;;3.40;;
1376;SDS011;682;52.502;13.488;2022-09-27T11:01:26;7.20;;;2.90;;
1376;SDS011;682;52.502;13.488;2022-09-27T11:04:14;8.67;;;3.10;;
1376;SDS011;682;52.502;13.488;2022-09-27T11:06:50;7.90;;;3.00;;
1376;SDS011;682;52.502;13.488;2022-09-27T11:09:20;12.73;;;2.80;;
1376;SDS011;682;52.502;13.488;2022-09-27T11:12:04;7.03;;;2.27;;
1376;SDS011;682;52.502;13.488;2022-09-27T11:14:36;7.30;;;2.90;;
1376;SDS011;682;52.502;13.488;2022-09-27T11:17:09;6.40;;;2.90;;
1376;SDS011;682;52.502;13.488;2022-09-27T11:25:43;7.27;;;3.37;;
1376;SDS011;682;52.502;13.488;2022-09-27T11:28:30;7.20;;;2.83;;
1376;SDS011;682;52.502;13.488;2022-09-27T11:32:21;6.20;;;2.90;;
1376;SDS011;682;52.502;13.488;2022-09-27T11:35:17;8.77;;;3.17;;
1376;SDS011;682;52.502;13.488;2022-09-27T11:38:23;7.53;;;3.30;;
1376;SDS011;682;52.502;13.488;2022-09-27T11:40:58;7.83;;;3.40;;
1376;SDS011;682;52.502;13.488;2022-09-27T11:43:59;6.90;;;3.13;;
1376;SDS011;682;52.502;13.488;2022-09-27T11:46:37;6.80;;;3.00;;
1376;SDS011;682;52.502;13.488;2022-09-27T11:49:14;7.60;;;4.00;;
1376;SDS011;682;52.502;13.488;2022-09-27T11:51:57;7.27;;;2.87;;
1376;SDS011;682;52.502;13.488;2022-09-27T11:54:41;7.13;;;3.60;;
1376;SDS011;682;52.502;13.488;2022-09-27T11:57:18;9.13;;;4.00;;
1376;SDS011;682;52.502;13.488;2022-09-27T12:00:00;6.40;;;2.50;;
1376;SDS011;682;52.502;13.488;2022-09-27T12:02:51;6.87;;;1.80;;
1376;SDS011;682;52.502;13.488;2022-09-27T12:05:37;7.70;;;1.97;;
1376;SDS011;682;52.502;13.488;2022-09-27T12:08:21;7.47;;;1.67;;
1376;SDS011;682;52.502;13.488;2022-09-27T12:11:11;6.93;;;1.90;;
1376;SDS011;682;52.502;13.488;2022-09-27T12:13:46;5.80;;;1.53;;
1376;SDS011;682;52.502;13.488;2022-09-27T12:16:18;7.90;;;2.50;;
1376;SDS011;682;52.502;13.488;2022-09-27T12:18:47;5.60;;;1.60;;
1376;SDS011;682;52.502;13.488;2022-09-27T12:21:21;5.40;;;1.20;;
1376;SDS011;682;52.502;13.488;2022-09-27T12:23:52;6.60;;;2.00;;
1376;SDS011;682;52.502;13.488;2022-09-27T12:26:22;7.57;;;2.93;;
1376;SDS011;682;52.502;13.488;2022-09-27T12:28:54;7.77;;;2.40;;
1376;SDS011;682;52.502;13.488;2022-09-27T12:31:25;7.30;;;2.10;;
1376;SDS011;682;52.502;13.488;2022-09-27T12:34:03;6.50;;;2.33;;
1376;SDS011;682;52.502;13.488;2022-09-27T12:36:40;6.50;;;2.63;;
1376;SDS011;682;52.502;13.488;2022-09-27T12:39:16;7.27;;;2.93;;
1376;SDS011;682;52.502;13.488;2022-09-27T12:41:50;7.73;;;3.47;;
1376;SDS011;682;52.502;13.488;2022-09-27T12:44:26;8.03;;;3.50;;
1376;SDS011;682;52.502;13.488;2022-09-27T12:47:02;7.47;;;3.40;;
1376;SDS011;682;52.502;13.488;2022-09-27T12:49:39;9.33;;;3.47;;
1376;SDS011;682;52.502;13.488;2022-09-27T12:52:15;9.07;;;3.50;;
1376;SDS011;682;52.502;13.488;2022-09-27T12:57:55;7.90;;;3.63;;
1376;SDS011;682;52.502;13.488;2022-09-27T13:00:43;7.00;;;3.30;;
1376;SDS011;682;52.502;13.488;2022-09-27T13:03:28;9.53;;;5.30;;
1376;SDS011;682;52.502;13.488;2022-09-27T13:09:21;7.90;;;3.77;;
1376;SDS011;682;52.502;13.488;2022-09-27T13:12:03;7.50;;;3.13;;
1376;SDS011;682;52.502;13.488;2022-09-27T13:14:39;6.90;;;3.03;;
1376;SDS011;682;52.502;13.488;2022-09-27T13:19:59;7.00;;;1.90;;
1376;SDS011;682;52.502;13.488;2022-09-27T13:26:20;5.80;;;2.13;;
1376;SDS011;682;52.502;13.488;2022-09-27T13:28:59;5.90;;;1.90;;
1376;SDS011;682;52.502;13.488;2022-09-27T13:34:41;6.43;;;2.63;;
1376;SDS011;682;52.502;13.488;2022-09-27T13:40:38;5.80;;;2.10;;
1376;SDS011;682;52.502;13.488;2022-09-27T13:43:38;6.33;;;3.33;;
1376;SDS011;682;52.502;13.488;2022-09-27T13:46:29;7.53;;;3.13;;
1376;SDS011;682;52.502;13.488;2022-09-27T13:49:18;6.60;;;3.00;;
1376;SDS011;682;52.502;13.488;2022-09-27T13:51:59;6.40;;;3.30;;
1376;SDS011;682;52.502;13.488;2022-09-27T13:54:54;6.40;;;2.93;;
1376;SDS011;682;52.502;13.488;2022-09-27T13:57:46;6.53;;;2.80;;
1376;SDS011;682;52.502;13.488;2022-09-27T14:00:20;7.20;;;3.50;;
1376;SDS011;682;52.502;13.488;2022-09-27T14:02:54;6.00;;;2.60;;
1376;SDS011;682;52.502;13.488;2022-09-27T14:05:31;7.47;;;3.07;;
1376;SDS011;682;52.502;13.488;2022-09-27T14:08:03;7.60;;;3.27;;
1376;SDS011;682;52.502;13.488;2022-09-27T14:10:32;6.60;;;2.90;;
1376;SDS011;682;52.502;13.488;2022-09-27T14:13:01;8.77;;;3.20;;
1376;SDS011;682;52.502;13.488;2022-09-27T14:15:32;6.93;;;3.40;;
1376;SDS011;682;52.502;13.488;2022-09-27T14:18:12;6.90;;;3.03;;
1376;SDS011;682;52.502;13.488;2022-09-27T14:20:43;7.00;;;3.90;;
1376;SDS011;682;52.502;13.488;2022-09-27T14:23:15;7.80;;;3.93;;
1376;SDS011;682;52.502;13.488;2022-09-27T14:25:46;7.53;;;4.30;;
1376;SDS011;682;52.502;13.488;2022-09-27T14:28:20;6.27;;;2.50;;
1376;SDS011;682;52.502;13.488;2022-09-27T14:31:03;5.73;;;2.00;;
1376;SDS011;682;52.502;13.488;2022-09-27T14:33:40;6.40;;;2.90;;
1376;SDS011;682;52.502;13.488;2022-09-27T14:36:15;6.73;;;2.93;;
1376;SDS011;682;52.502;13.488;2022-09-27T14:39:14;5.67;;;1.87;;
1376;SDS011;682;52.502;13.488;2022-09-27T14:41:45;7.17;;;2.60;;
1376;SDS011;682;52.502;13.488;2022-09-27T14:44:16;6.40;;;1.97;;
1376;SDS011;682;52.502;13.488;2022-09-27T14:46:45;6.03;;;2.00;;
1376;SDS011;682;52.502;13.488;2022-09-27T14:49:20;5.60;;;1.60;;
1376;SDS011;682;52.502;13.488;2022-09-27T14:51:53;5.30;;;1.60;;
1376;SDS011;682;52.502;13.488;2022-09-27T14:54:21;6.40;;;1.90;;
1376;SDS011;682;52.502;13.488;2022-09-27T14:56:51;5.93;;;2.27;;
1376;SDS011;682;52.502;13.488;2022-09-27T14:59:24;5.90;;;2.07;;
1376;SDS011;682;52.502;13.488;2022-09-27T15:01:55;5.83;;;1.90;;
1376;SDS011;682;52.502;13.488;2022-09-27T15:04:26;6.00;;;1.90;;
1376;SDS011;682;52.502;13.488;2022-09-27T15:07:00;6.37;;;2.20;;
1376;SDS011;682;52.502;13.488;2022-09-27T15:09:28;6.33;;;2.30;;
1376;SDS011;682;52.502;13.488;2022-09-27T15:11:58;6.70;;;2.43;;
1376;SDS011;682;52.502;13.488;2022-09-27T15:14:26;7.60;;;3.33;;
1376;SDS011;682;52.502;13.488;2022-09-27T15:16:57;7.70;;;3.03;;
1376;SDS011;682;52.502;13.488;2022-09-27T15:19:30;7.40;;;3.10;;
1376;SDS011;682;52.502;13.488;2022-09-27T15:25:03;9.07;;;3.40;;
1376;SDS011;682;52.502;13.488;2022-09-27T15:27:33;11.60;;;3.40;;
1376;SDS011;682;52.502;13.488;2022-09-27T15:30:00;7.33;;;2.57;;
1376;SDS011;682;52.502;13.488;2022-09-27T15:32:28;7.43;;;2.97;;
1376;SDS011;682;52.502;13.488;2022-09-27T15:34:56;8.10;;;3.10;;
1376;SDS011;682;52.502;13.488;2022-09-27T15:37:34;6.53;;;2.70;;
1376;SDS011;682;52.502;13.488;2022-09-27T15:40:07;6.77;;;2.97;;
1376;SDS011;682;52.502;13.488;2022-09-27T15:43:25;9.60;;;3.20;;
1376;SDS011;682;52.502;13.488;2022-09-27T15:45:54;6.83;;;3.10;;
1376;SDS011;682;52.502;13.488;2022-09-27T15:48:25;9.23;;;3.47;;
1376;SDS011;682;52.502;13.488;2022-09-27T15:50:52;8.33;;;3.10;;
1376;SDS011;682;52.502;13.488;2022-09-27T15:56:11;7.23;;;3.00;;
1376;SDS011;682;52.502;13.488;2022-09-27T15:58:40;8.00;;;3.13;;
1376;SDS011;682;52.502;13.488;2022-09-27T16:03:53;7.20;;;3.70;;
1376;SDS011;682;52.502;13.488;2022-09-27T16:06:23;7.93;;;3.57;;
1376;SDS011;682;52.502;13.488;2022-09-27T16:08:54;7.10;;;3.50;;
1376;SDS011;682;52.502;13.488;2022-09-27T16:11:20;7.63;;;2.97;;
1376;SDS011;682;52.502;13.488;2022-09-27T16:13:48;7.20;;;3.13;;
1376;SDS011;682;52.502;13.488;2022-09-27T16:16:17;6.57;;;2.63;;
1376;SDS011;682;52.502;13.488;2022-09-27T16:18:45;8.00;;;3.10;;
1376;SDS011;682;52.502;13.488;2022-09-27T16:21:15;7.20;;;3.00;;
1376;SDS011;682;52.502;13.488;2022-09-27T16:23:42;5.83;;;2.00;;
1376;SDS011;682;52.502;13.488;2022-09-27T16:26:11;6.40;;;2.90;;
1376;SDS011;682;52.502;13.488;2022-09-27T16:28:38;6.30;;;2.20;;
1376;SDS011;682;52.502;13.488;2022-09-27T16:31:05;5.83;;;2.03;;
1376;SDS011;682;52.502;13.488;2022-09-27T16:33:34;5.87;;;2.00;;
1376;SDS011;682;52.502;13.488;2022-09-27T16:36:03;5.33;;;1.80;;
1376;SDS011;682;52.502;13.488;2022-09-27T16:38:38;5.40;;;1.80;;
1376;SDS011;682;52.502;13.488;2022-09-27T16:41:07;7.07;;;2.93;;
1376;SDS011;682;52.502;13.488;2022-09-27T16:43:35;5.93;;;2.10;;
1376;SDS011;682;52.502;13.488;2022-09-27T16:46:03;6.33;;;2.43;;
1376;SDS011;682;52.502;13.488;2022-09-27T16:48:31;6.30;;;2.50;;
1376;SDS011;682;52.502;13.488;2022-09-27T16:51:01;8.87;;;3.07;;
1376;SDS011;682;52.502;13.488;2022-09-27T16:53:50;7.70;;;2.73;;
1376;SDS011;682;52.502;13.488;2022-09-27T16:56:16;6.93;;;3.00;;
1376;SDS011;682;52.502;13.488;2022-09-27T16:58:48;7.50;;;3.30;;
1376;SDS011;682;52.502;13.488;2022-09-27T17:01:16;6.80;;;2.80;;
1376;SDS011;682;52.502;13.488;2022-09-27T17:03:43;9.20;;;3.93;;
1376;SDS011;682;52.502;13.488;2022-09-27T17:06:15;7.33;;;2.93;;
1376;SDS011;682;52.502;13.488;2022-09-27T17:08:45;7.70;;;3.17;;
1376;SDS011;682;52.502;13.488;2022-09-27T17:11:19;7.00;;;3.57;;
1376;SDS011;682;52.502;13.488;2022-09-27T17:13:52;7.30;;;3.43;;
1376;SDS011;682;52.502;13.488;2022-09-27T17:16:19;7.37;;;3.10;;
1376;SDS011;682;52.502;13.488;2022-09-27T17:18:46;6.90;;;2.90;;
1376;SDS011;682;52.502;13.488;2022-09-27T17:21:13;6.50;;;2.80;;
1376;SDS011;682;52.502;13.488;2022-09-27T17:23:40;8.43;;;3.30;;
1376;SDS011;682;52.502;13.488;2022-09-27T17:26:08;6.37;;;2.63;;
1376;SDS011;682;52.502;13.488;2022-09-27T17:28:42;9.03;;;3.13;;
1376;SDS011;682;52.502;13.488;2022-09-27T17:31:12;6.70;;;2.13;;
1376;SDS011;682;52.502;13.488;2022-09-27T17:33:42;6.50;;;2.50;;
1376;SDS011;682;52.502;13.488;2022-09-27T17:36:12;6.20;;;2.70;;
1376;SDS011;682;52.502;13.488;2022-09-27T17:38:42;7.10;;;3.40;;
1376;SDS011;682;52.502;13.488;2022-09-27T17:41:10;8.80;;;3.40;;
1376;SDS011;682;52.502;13.488;2022-09-27T17:43:39;9.13;;;5.50;;
1376;SDS011;682;52.502;13.488;2022-09-27T17:46:15;7.17;;;3.43;;